Aviation Digital Data Service (ADDS)

Output produced by METARs form (0142 UTC 27 May 2015)
found at http://aviationweather.gov/adds/metars/
 
KCON 262330Z 2700/2724 22010KT P6SM SCT100 BKN250 
     FM270600 16004KT P6SM OVC100 
     FM270900 15002KT 4SM BR OVC100 
     FM271200 15002KT 6SM HZ OVC050 
     FM271400 18006KT P6SM BKN250 
     TEMPO 2721/2724 P6SM -TSRA BKN050CB